createdAt,value
2023-05-22T00:01:06.851Z,13.38
2023-05-22T00:03:36.486Z,15.05
2023-05-22T00:06:06.238Z,11.20
2023-05-22T00:08:34.378Z,10.77
2023-05-22T00:11:03.582Z,12.65
2023-05-22T00:13:31.707Z,11.10
2023-05-22T00:15:59.768Z,9.52
2023-05-22T00:18:29.187Z,11.13
2023-05-22T00:20:58.033Z,9.90
2023-05-22T00:23:27.909Z,11.75
2023-05-22T00:25:56.007Z,12.50
2023-05-22T00:28:24.113Z,10.38
2023-05-22T00:30:52.294Z,9.88
2023-05-22T00:33:20.454Z,9.50
2023-05-22T00:35:49.939Z,9.70
2023-05-22T00:38:30.565Z,10.70
2023-05-22T00:40:58.836Z,10.48
2023-05-22T00:43:27.084Z,10.52
2023-05-22T00:45:55.236Z,10.85
2023-05-22T00:48:23.450Z,10.45
2023-05-22T00:50:54.998Z,11.70
2023-05-22T00:53:25.321Z,12.20
2023-05-22T00:55:54.851Z,12.63
2023-05-22T00:58:23.915Z,12.27
2023-05-22T01:00:52.377Z,10.32
2023-05-22T01:03:25.986Z,11.30
2023-05-22T01:05:56.803Z,9.90
2023-05-22T01:08:24.976Z,11.00
2023-05-22T01:11:02.005Z,10.25
2023-05-22T01:13:35.604Z,10.73
2023-05-22T01:16:12.240Z,11.00
2023-05-22T01:18:46.248Z,11.80
2023-05-22T01:21:23.116Z,11.20
2023-05-22T01:24:22.058Z,10.13
2023-05-22T01:27:20.541Z,10.35
2023-05-22T01:30:03.073Z,9.32
2023-05-22T01:32:35.306Z,11.85
2023-05-22T01:35:08.090Z,9.73
2023-05-22T01:37:37.247Z,9.57
2023-05-22T01:40:07.473Z,11.63
2023-05-22T01:42:36.293Z,11.32
2023-05-22T01:45:04.497Z,12.75
2023-05-22T01:47:35.661Z,11.88
2023-05-22T01:50:04.965Z,10.25
2023-05-22T01:52:53.426Z,10.15
2023-05-22T01:55:29.248Z,11.40
2023-05-22T01:58:04.033Z,10.48
2023-05-22T02:00:33.549Z,10.27
2023-05-22T02:03:08.026Z,12.05
2023-05-22T02:05:41.307Z,10.82
2023-05-22T02:08:10.043Z,12.63
2023-05-22T02:10:39.994Z,11.00
2023-05-22T02:13:08.413Z,9.35
2023-05-22T02:15:36.707Z,8.90
2023-05-22T02:18:12.954Z,10.07
2023-05-22T02:20:41.535Z,9.73
2023-05-22T02:23:09.675Z,9.00
2023-05-22T02:25:37.814Z,10.23
2023-05-22T02:28:06.089Z,10.35
2023-05-22T02:30:34.165Z,11.27
2023-05-22T02:33:05.531Z,10.63
2023-05-22T02:35:35.033Z,8.35
2023-05-22T02:38:03.523Z,12.27
2023-05-22T02:40:31.611Z,8.70
2023-05-22T02:42:59.691Z,12.90
2023-05-22T02:45:27.899Z,10.18
2023-05-22T02:47:56.185Z,9.88
2023-05-22T02:50:24.288Z,9.00
2023-05-22T02:52:53.742Z,9.90
2023-05-22T02:55:22.762Z,9.43
2023-05-22T02:57:50.874Z,10.20
2023-05-22T03:00:20.104Z,12.27
2023-05-22T03:02:48.321Z,11.60
2023-05-22T03:05:17.658Z,11.43
2023-05-22T03:07:48.816Z,9.90
2023-05-22T03:10:18.861Z,9.67
2023-05-22T03:12:47.041Z,11.23
2023-05-22T03:15:15.233Z,8.95
2023-05-22T03:17:43.330Z,10.55
2023-05-22T03:20:17.102Z,10.70
2023-05-22T03:22:45.775Z,11.05
2023-05-22T03:25:13.898Z,10.52
2023-05-22T03:27:43.389Z,11.77
2023-05-22T03:30:12.245Z,9.95
2023-05-22T03:32:40.992Z,10.20
2023-05-22T03:35:10.244Z,12.35
2023-05-22T03:37:38.316Z,10.18
2023-05-22T03:40:07.879Z,9.27
2023-05-22T03:42:36.028Z,11.88
2023-05-22T03:45:06.366Z,11.60
2023-05-22T03:47:34.453Z,11.45
2023-05-22T03:50:02.664Z,9.00
2023-05-22T03:52:30.721Z,9.77
2023-05-22T03:54:58.859Z,11.23
2023-05-22T03:57:26.940Z,10.25
2023-05-22T03:59:55.013Z,9.68
2023-05-22T04:02:26.360Z,9.40
2023-05-22T04:04:54.636Z,10.35
2023-05-22T04:07:24.065Z,8.82
2023-05-22T04:09:52.135Z,12.00
2023-05-22T04:12:20.328Z,10.40
2023-05-22T04:14:48.399Z,10.88
2023-05-22T04:17:16.503Z,9.35
2023-05-22T04:19:45.920Z,11.27
2023-05-22T04:22:13.995Z,9.48
2023-05-22T04:24:42.084Z,9.15
2023-05-22T04:27:10.160Z,10.48
2023-05-22T04:29:38.235Z,10.55
2023-05-22T04:32:10.537Z,10.93
2023-05-22T04:34:38.699Z,11.02
2023-05-22T04:37:10.172Z,10.45
2023-05-22T04:39:41.217Z,12.48
2023-05-22T04:42:09.432Z,12.57
2023-05-22T04:44:38.274Z,20.25
2023-05-22T04:47:08.228Z,19.27
2023-05-22T04:49:36.416Z,15.10
2023-05-22T04:52:06.055Z,13.38
2023-05-22T04:54:36.194Z,15.68
2023-05-22T04:57:05.045Z,13.43
2023-05-22T04:59:33.486Z,13.07
2023-05-22T05:02:01.575Z,12.20
2023-05-22T05:04:29.633Z,22.98
2023-05-22T05:06:57.851Z,12.57
2023-05-22T05:09:26.046Z,12.05
2023-05-22T05:11:56.364Z,16.83
2023-05-22T05:14:24.535Z,11.75
2023-05-22T05:16:53.214Z,12.70
2023-05-22T05:19:22.196Z,11.88
2023-05-22T05:21:50.601Z,12.43
2023-05-22T05:24:18.772Z,14.00
2023-05-22T05:26:47.032Z,12.68
2023-05-22T05:29:16.565Z,13.82
2023-05-22T05:31:44.748Z,11.73
2023-05-22T05:34:13.522Z,13.88
2023-05-22T05:36:42.204Z,12.20
2023-05-22T05:39:10.335Z,12.30
2023-05-22T05:41:38.392Z,12.43
2023-05-22T05:44:06.615Z,13.70
2023-05-22T05:46:36.703Z,12.32
2023-05-22T05:49:11.161Z,11.70
2023-05-22T05:51:39.555Z,11.73
2023-05-22T05:54:07.710Z,12.60
2023-05-22T05:56:35.822Z,16.08
2023-05-22T05:59:04.026Z,10.80
2023-05-22T06:01:35.323Z,14.50
2023-05-22T06:04:05.529Z,12.23
2023-05-22T06:06:35.744Z,14.27
2023-05-22T06:09:05.576Z,13.25
2023-05-22T06:11:33.777Z,15.20
2023-05-22T06:14:02.993Z,13.85
2023-05-22T06:16:31.312Z,12.05
2023-05-22T06:19:00.234Z,12.52
2023-05-22T06:21:29.762Z,11.32
2023-05-22T06:23:58.727Z,14.07
2023-05-22T06:26:27.713Z,12.35
2023-05-22T06:28:55.889Z,15.15
2023-05-22T06:31:24.534Z,12.43
2023-05-22T06:33:52.783Z,12.63
2023-05-22T06:36:21.051Z,11.25
2023-05-22T06:38:51.918Z,11.15
2023-05-22T06:41:20.087Z,12.13
2023-05-22T06:43:48.312Z,10.65
2023-05-22T06:46:16.395Z,13.10
2023-05-22T06:48:44.534Z,12.93
2023-05-22T06:51:12.832Z,11.90
2023-05-22T06:53:40.912Z,11.25
2023-05-22T06:56:10.405Z,11.18
2023-05-22T06:58:38.498Z,11.07
2023-05-22T07:01:07.784Z,12.25
2023-05-22T07:03:35.964Z,10.82
2023-05-22T07:06:04.477Z,11.38
2023-05-22T07:08:32.577Z,10.70
2023-05-22T07:11:01.953Z,10.90
2023-05-22T07:13:32.182Z,10.05
2023-05-22T07:16:00.339Z,9.90
2023-05-22T07:18:28.433Z,11.32
2023-05-22T07:20:56.517Z,10.70
2023-05-22T07:23:26.218Z,11.00
2023-05-22T07:25:54.682Z,9.57
2023-05-22T07:28:22.804Z,9.75
2023-05-22T07:30:52.237Z,9.27
2023-05-22T07:33:20.428Z,10.82
2023-05-22T07:35:48.487Z,8.40
2023-05-22T07:38:16.586Z,9.23
2023-05-22T07:40:44.751Z,8.38
2023-05-22T07:43:12.839Z,12.95
2023-05-22T07:45:41.185Z,10.77
2023-05-22T07:48:11.918Z,8.82
2023-05-22T07:50:44.729Z,8.23
2023-05-22T07:53:13.102Z,8.48
2023-05-22T07:55:41.474Z,7.70
2023-05-22T07:58:10.888Z,8.77
2023-05-22T08:00:39.105Z,9.48
2023-05-22T08:03:07.409Z,10.95
2023-05-22T08:05:37.005Z,8.07
2023-05-22T08:08:05.511Z,7.43
2023-05-22T08:10:47.028Z,6.63
2023-05-22T08:13:21.697Z,7.68
2023-05-22T08:15:49.777Z,9.57
2023-05-22T08:18:17.884Z,7.47
2023-05-22T08:20:47.833Z,6.57
2023-05-22T08:23:15.931Z,8.88
2023-05-22T08:25:44.075Z,7.60
2023-05-22T08:28:12.166Z,7.18
2023-05-22T08:30:40.459Z,6.90
2023-05-22T08:33:08.716Z,8.05
2023-05-22T08:35:36.950Z,7.93
2023-05-22T08:38:06.408Z,6.82
2023-05-22T08:40:37.701Z,7.70
2023-05-22T08:43:07.066Z,6.68
2023-05-22T08:45:35.546Z,7.43
2023-05-22T08:48:06.618Z,7.25
2023-05-22T08:50:38.763Z,8.05
2023-05-22T08:53:12.501Z,8.02
2023-05-22T08:55:41.194Z,6.40
2023-05-22T08:58:11.520Z,8.48
2023-05-22T09:00:39.949Z,8.50
2023-05-22T09:03:10.134Z,8.88
2023-05-22T09:05:39.236Z,6.82
2023-05-22T09:08:19.937Z,6.70
2023-05-22T09:10:49.335Z,7.05
2023-05-22T09:13:26.719Z,8.23
2023-05-22T09:15:55.983Z,7.97
2023-05-22T09:18:27.913Z,8.13
2023-05-22T09:20:59.059Z,6.30
2023-05-22T09:23:29.610Z,7.25
2023-05-22T09:25:59.231Z,7.97
2023-05-22T09:28:29.010Z,7.82
2023-05-22T09:30:57.359Z,8.27
2023-05-22T09:33:26.063Z,7.53
2023-05-22T09:35:54.676Z,8.05
2023-05-22T09:38:24.432Z,7.50
2023-05-22T09:40:56.143Z,7.13
2023-05-22T09:43:25.851Z,7.55
2023-05-22T09:46:04.284Z,7.07
2023-05-22T09:48:36.646Z,7.43
2023-05-22T09:51:07.435Z,9.48
2023-05-22T09:53:37.203Z,7.90
2023-05-22T09:56:14.681Z,8.90
2023-05-22T09:58:45.998Z,8.27
2023-05-22T10:01:16.364Z,8.40
2023-05-22T10:03:47.323Z,8.35
2023-05-22T10:06:19.874Z,6.90
2023-05-22T10:08:55.532Z,8.23
2023-05-22T10:11:26.835Z,7.97
2023-05-22T10:18:56.247Z,6.10
2023-05-22T10:21:24.630Z,8.30
2023-05-22T10:23:53.441Z,9.05
2023-05-22T10:26:22.375Z,8.20
2023-05-22T10:28:59.206Z,6.85
2023-05-22T10:31:33.602Z,7.32
2023-05-22T10:34:07.507Z,7.60
2023-05-22T10:36:50.354Z,10.50
2023-05-22T10:39:36.081Z,6.68
2023-05-22T10:42:04.538Z,7.15
2023-05-22T10:44:35.970Z,7.70
2023-05-22T10:47:10.321Z,8.30
2023-05-22T10:49:39.154Z,7.57
2023-05-22T10:52:10.033Z,7.78
2023-05-22T10:54:42.413Z,7.15
2023-05-22T10:57:16.198Z,7.47
2023-05-22T10:59:48.204Z,6.65
2023-05-22T11:02:23.708Z,6.72
2023-05-22T11:04:52.357Z,7.72
2023-05-22T11:07:20.762Z,6.72
2023-05-22T11:09:49.099Z,7.57
2023-05-22T11:12:21.745Z,7.25
2023-05-22T11:14:53.051Z,6.25
2023-05-22T11:20:00.919Z,12.25
2023-05-22T11:22:37.031Z,6.63
2023-05-22T11:25:08.760Z,6.88
2023-05-22T11:27:37.685Z,7.28
2023-05-22T11:30:09.543Z,6.38
2023-05-22T11:32:38.214Z,7.25
2023-05-22T11:35:10.468Z,7.97
2023-05-22T11:37:42.312Z,8.15
2023-05-22T11:40:11.657Z,6.45
2023-05-22T11:42:40.186Z,7.57
2023-05-22T11:45:11.033Z,6.10
2023-05-22T11:47:39.739Z,7.03
2023-05-22T11:50:11.013Z,6.78
2023-05-22T11:55:09.866Z,7.25
2023-05-22T11:57:39.026Z,8.38
2023-05-22T12:00:10.883Z,6.78
2023-05-22T12:02:39.522Z,10.05
2023-05-22T12:05:10.260Z,6.82
2023-05-22T12:07:39.102Z,9.65
2023-05-22T12:10:08.311Z,6.38
2023-05-22T12:12:36.550Z,6.45
2023-05-22T12:15:07.567Z,6.28
2023-05-22T12:17:39.037Z,7.35
2023-05-22T12:20:08.321Z,9.15
2023-05-22T12:22:42.376Z,9.23
2023-05-22T12:25:16.428Z,6.30
2023-05-22T12:27:45.483Z,6.80
2023-05-22T12:30:15.694Z,7.45
2023-05-22T12:32:51.519Z,9.93
2023-05-22T12:35:20.266Z,7.47
2023-05-22T12:37:52.287Z,6.80
2023-05-22T12:40:20.861Z,6.35
2023-05-22T12:42:49.878Z,6.60
2023-05-22T12:45:18.812Z,8.68
2023-05-22T12:47:47.229Z,9.18
2023-05-22T12:50:16.934Z,6.50
2023-05-22T12:52:45.230Z,6.03
2023-05-22T12:55:13.478Z,8.00
2023-05-22T12:57:41.768Z,6.82
2023-05-22T13:00:11.283Z,7.82
2023-05-22T13:02:39.677Z,7.10
2023-05-22T13:05:08.532Z,7.70
2023-05-22T13:07:38.348Z,5.95
2023-05-22T13:10:07.468Z,7.75
2023-05-22T13:12:35.740Z,6.97
2023-05-22T13:15:04.491Z,9.00
2023-05-22T13:17:32.843Z,8.85
2023-05-22T13:20:01.373Z,10.30
2023-05-22T13:22:29.615Z,9.63
2023-05-22T13:24:59.134Z,8.77
2023-05-22T13:27:28.134Z,7.43
2023-05-22T13:29:56.359Z,8.38
2023-05-22T13:32:24.655Z,8.65
2023-05-22T13:34:52.870Z,8.13
2023-05-22T13:37:21.322Z,8.82
2023-05-22T13:39:49.477Z,8.20
2023-05-22T13:42:19.169Z,8.95
2023-05-22T13:44:47.409Z,11.48
2023-05-22T13:47:15.696Z,7.75
2023-05-22T13:49:43.929Z,10.10
2023-05-22T13:52:12.038Z,9.02
2023-05-22T13:54:40.176Z,7.53
2023-05-22T13:57:08.418Z,10.57
2023-05-22T13:59:38.002Z,8.48
2023-05-22T14:02:06.876Z,8.95
2023-05-22T14:04:35.126Z,8.98
2023-05-22T14:07:03.413Z,8.02
2023-05-22T14:09:31.746Z,5.60
2023-05-22T14:12:00.067Z,9.27
2023-05-22T14:14:28.364Z,6.40
2023-05-22T14:16:57.987Z,6.22
2023-05-22T14:19:26.372Z,9.05
2023-05-22T14:21:54.646Z,9.25
2023-05-22T14:24:22.943Z,7.97
2023-05-22T14:26:51.274Z,6.35
2023-05-22T14:29:19.752Z,6.05
2023-05-22T14:31:51.521Z,6.45
2023-05-22T14:34:21.789Z,7.00
2023-05-22T14:36:50.038Z,6.25
2023-05-22T14:39:18.283Z,5.75
2023-05-22T14:41:46.496Z,5.82
2023-05-22T14:44:14.767Z,6.93
2023-05-22T14:46:43.175Z,6.18
2023-05-22T14:49:11.786Z,8.95
2023-05-22T14:51:41.416Z,6.18
2023-05-22T14:54:10.267Z,9.18
2023-05-22T14:56:38.562Z,7.60
2023-05-22T14:59:06.942Z,8.02
2023-05-22T15:01:35.684Z,12.55
2023-05-22T15:04:04.054Z,9.93
2023-05-22T15:06:32.938Z,8.10
2023-05-22T15:09:02.636Z,6.88
2023-05-22T15:11:31.037Z,8.73
2023-05-22T15:13:59.301Z,8.15
2023-05-22T15:16:28.053Z,10.85
2023-05-22T15:18:56.509Z,9.23
2023-05-22T15:21:25.731Z,5.15
2023-05-22T15:23:54.071Z,8.38
2023-05-22T15:26:23.832Z,8.52
2023-05-22T15:28:52.120Z,7.22
2023-05-22T15:31:20.563Z,5.20
2023-05-22T15:33:48.846Z,8.20
2023-05-22T15:36:17.071Z,7.45
2023-05-22T15:38:45.337Z,7.93
2023-05-22T15:41:13.647Z,5.47
2023-05-22T15:43:43.316Z,6.07
2023-05-22T15:46:14.462Z,6.95
2023-05-22T15:48:42.953Z,9.02
2023-05-22T15:51:11.237Z,6.93
2023-05-22T15:53:39.834Z,5.88
2023-05-22T15:56:08.468Z,9.40
2023-05-22T15:58:36.518Z,14.85
2023-05-22T16:01:07.923Z,8.05
2023-05-22T16:06:04.300Z,6.53
2023-05-22T16:08:32.393Z,6.43
2023-05-22T16:11:01.685Z,6.70
2023-05-22T16:13:29.886Z,6.38
2023-05-22T16:15:57.971Z,6.55
2023-05-22T16:18:27.442Z,7.03
2023-05-22T16:20:55.538Z,7.45
2023-05-22T16:23:23.581Z,6.28
2023-05-22T16:25:51.643Z,9.75
2023-05-22T16:28:19.686Z,7.47
2023-05-22T16:30:47.749Z,9.90
2023-05-22T16:33:15.802Z,5.97
2023-05-22T16:35:46.964Z,8.65
2023-05-22T16:38:15.198Z,6.28
2023-05-22T16:40:43.288Z,6.60
2023-05-22T16:43:12.580Z,7.38
2023-05-22T16:45:46.348Z,5.63
2023-05-22T16:48:14.609Z,7.35
2023-05-22T16:50:44.187Z,7.30
2023-05-22T16:53:12.272Z,7.38
2023-05-22T16:55:40.813Z,9.02
2023-05-22T16:58:11.541Z,5.40
2023-05-22T17:00:40.683Z,4.45
2023-05-22T17:03:09.334Z,4.75
2023-05-22T17:05:38.604Z,6.10
2023-05-22T17:08:08.222Z,4.75
2023-05-22T17:10:36.482Z,6.07
2023-05-22T17:13:04.867Z,5.07
2023-05-22T17:15:33.055Z,7.38
2023-05-22T17:18:01.227Z,5.30
2023-05-22T17:20:29.914Z,5.65
2023-05-22T17:22:58.081Z,4.88
2023-05-22T17:25:27.549Z,5.32
2023-05-22T17:27:55.648Z,5.85
2023-05-22T17:30:25.257Z,5.47
2023-05-22T17:32:56.736Z,6.45
2023-05-22T17:35:24.942Z,7.03
2023-05-22T17:37:53.099Z,5.20
2023-05-22T17:40:32.571Z,6.68
2023-05-22T17:43:09.769Z,4.88
2023-05-22T17:45:37.967Z,5.00
2023-05-22T17:48:07.812Z,4.85
2023-05-22T17:50:36.063Z,4.65
2023-05-22T17:53:04.139Z,5.10
2023-05-22T17:55:32.213Z,4.85
2023-05-22T17:58:00.540Z,5.78
2023-05-22T18:00:29.994Z,4.97
2023-05-22T18:02:58.129Z,6.22
2023-05-22T18:05:26.392Z,5.75
2023-05-22T18:07:54.477Z,5.43
2023-05-22T18:10:24.972Z,9.23
2023-05-22T18:12:53.148Z,9.27
2023-05-22T18:15:21.234Z,6.22
2023-05-22T18:17:50.692Z,9.15
2023-05-22T18:20:19.996Z,7.35
2023-05-22T18:22:48.069Z,6.30
2023-05-22T18:25:16.130Z,7.00
2023-05-22T18:27:44.264Z,9.73
2023-05-22T18:30:13.001Z,8.05
2023-05-22T18:32:41.106Z,10.68
2023-05-22T18:35:11.011Z,8.15
2023-05-22T18:37:39.238Z,8.40
2023-05-22T18:40:09.309Z,6.75
2023-05-22T18:42:37.574Z,7.68
2023-05-22T18:45:06.932Z,7.15
2023-05-22T18:47:35.316Z,8.25
2023-05-22T18:50:03.971Z,7.93
2023-05-22T18:52:33.416Z,8.10
2023-05-22T18:55:01.480Z,8.90
2023-05-22T18:57:29.577Z,8.27
2023-05-22T18:59:57.680Z,10.73
2023-05-22T19:02:26.121Z,9.52
2023-05-22T19:04:54.301Z,11.35
2023-05-22T19:07:22.469Z,7.30
2023-05-22T19:09:51.912Z,11.38
2023-05-22T19:12:20.022Z,9.02
2023-05-22T19:14:49.626Z,8.57
2023-05-22T19:17:17.728Z,7.85
2023-05-22T19:19:46.558Z,7.55
2023-05-22T19:22:17.660Z,9.82
2023-05-22T19:24:46.079Z,9.05
2023-05-22T19:27:15.559Z,9.32
2023-05-22T19:29:43.639Z,8.50
2023-05-22T19:32:11.732Z,8.93
2023-05-22T19:34:39.872Z,9.40
2023-05-22T19:37:09.465Z,9.15
2023-05-22T19:39:37.526Z,8.35
2023-05-22T19:42:08.128Z,8.80
2023-05-22T19:44:37.617Z,8.27
2023-05-22T19:47:05.932Z,10.02
2023-05-22T19:49:36.806Z,9.63
2023-05-22T19:52:05.776Z,9.63
2023-05-22T19:54:33.981Z,9.68
2023-05-22T19:57:02.111Z,13.13
2023-05-22T19:59:30.185Z,8.95
2023-05-22T20:01:59.689Z,8.93
2023-05-22T20:04:27.993Z,11.38
2023-05-22T20:06:58.685Z,12.23
2023-05-22T20:09:27.595Z,15.65
2023-05-22T20:11:55.702Z,13.55
2023-05-22T20:14:23.799Z,11.25
2023-05-22T20:16:52.055Z,15.70
2023-05-22T20:19:21.604Z,15.15
2023-05-22T20:21:50.767Z,12.90
2023-05-22T20:24:20.876Z,16.88
2023-05-22T20:26:49.368Z,13.80
2023-05-22T20:29:17.730Z,12.18
2023-05-22T20:31:47.106Z,13.95
2023-05-22T20:34:15.576Z,17.70
2023-05-22T20:36:46.581Z,14.98
2023-05-22T20:39:14.928Z,14.48
2023-05-22T20:41:43.068Z,19.50
2023-05-22T20:44:11.150Z,16.30
2023-05-22T20:46:39.225Z,19.80
2023-05-22T20:49:07.305Z,18.75
2023-05-22T20:51:35.436Z,18.60
2023-05-22T20:54:05.251Z,15.40
2023-05-22T20:56:33.416Z,17.40
2023-05-22T20:59:01.506Z,17.05
2023-05-22T21:01:29.619Z,18.20
2023-05-22T21:03:57.736Z,17.40
2023-05-22T21:06:25.940Z,18.88
2023-05-22T21:08:58.915Z,17.08
2023-05-22T21:11:28.669Z,15.55
2023-05-22T21:13:56.725Z,17.70
2023-05-22T21:16:25.763Z,17.55
2023-05-22T21:18:53.887Z,15.30
2023-05-22T21:21:22.032Z,18.83
2023-05-22T21:23:50.821Z,17.50
2023-05-22T21:26:22.210Z,15.35
2023-05-22T21:28:51.817Z,12.95
2023-05-22T21:31:19.973Z,13.25
2023-05-22T21:33:48.124Z,13.35
2023-05-22T21:36:16.236Z,12.55
2023-05-22T21:38:44.296Z,10.38
2023-05-22T21:41:12.652Z,11.55
2023-05-22T21:43:40.757Z,11.15
2023-05-22T21:46:11.290Z,9.50
2023-05-22T21:48:39.361Z,10.43
2023-05-22T21:51:07.481Z,10.50
2023-05-22T21:53:35.561Z,8.45
2023-05-22T21:56:04.757Z,9.23
2023-05-22T21:58:32.875Z,8.13
2023-05-22T22:01:00.968Z,8.23
2023-05-22T22:03:30.523Z,11.35
2023-05-22T22:05:58.628Z,9.32
2023-05-22T22:08:28.275Z,9.38
2023-05-22T22:10:57.694Z,8.18
2023-05-22T22:13:25.794Z,7.05
2023-05-22T22:15:54.931Z,6.90
2023-05-22T22:18:23.027Z,8.38
2023-05-22T22:20:54.084Z,7.53
2023-05-22T22:23:22.860Z,7.05
2023-05-22T22:25:51.118Z,6.75
2023-05-22T22:28:19.203Z,10.02
2023-05-22T22:30:47.864Z,6.57
2023-05-22T22:33:16.011Z,9.35
2023-05-22T22:35:44.218Z,6.90
2023-05-22T22:38:13.642Z,8.30
2023-05-22T22:40:42.462Z,7.68
2023-05-22T22:43:10.932Z,9.20
2023-05-22T22:45:39.833Z,7.30
2023-05-22T22:48:08.271Z,8.30
2023-05-22T22:50:36.480Z,7.82
2023-05-22T22:53:04.605Z,7.82
2023-05-22T22:55:34.106Z,8.05
2023-05-22T22:58:02.924Z,9.27
2023-05-22T23:00:31.164Z,7.07
2023-05-22T23:03:00.377Z,7.60
2023-05-22T23:05:28.519Z,11.80
2023-05-22T23:07:58.322Z,7.85
2023-05-22T23:10:26.380Z,7.70
2023-05-22T23:12:55.962Z,8.10
2023-05-22T23:15:24.714Z,7.78
2023-05-22T23:17:52.792Z,8.02
2023-05-22T23:20:20.890Z,8.18
2023-05-22T23:22:48.979Z,8.70
2023-05-22T23:25:17.114Z,9.02
2023-05-22T23:27:45.265Z,8.60
2023-05-22T23:30:15.045Z,8.48
2023-05-22T23:32:43.140Z,10.38
2023-05-22T23:35:11.422Z,10.40
2023-05-22T23:37:39.496Z,8.65
2023-05-22T23:40:09.131Z,9.02
2023-05-22T23:42:37.446Z,9.65
2023-05-22T23:45:06.363Z,10.77
2023-05-22T23:47:35.833Z,11.20
2023-05-22T23:50:04.055Z,9.57
2023-05-22T23:52:32.189Z,13.32
2023-05-22T23:55:00.718Z,10.38
2023-05-22T23:57:28.839Z,14.18
2023-05-22T23:59:56.897Z,10.27
